sensor_id;sensor_type;location;lat;lon;timestamp;P1;durP1;ratioP1;P2;durP2;ratioP2
17648;SDS011;8943;51.110;-4.158;2023-04-25T08:17:38;7.13;;;2.10;;
17648;SDS011;8943;51.110;-4.158;2023-04-25T08:20:24;8.47;;;2.30;;
17648;SDS011;8943;51.110;-4.158;2023-04-25T08:30:21;4.23;;;1.73;;
17648;SDS011;8943;51.110;-4.158;2023-04-25T09:25:58;3.47;;;1.53;;
17648;SDS011;8943;51.110;-4.158;2023-04-25T09:28:43;7.73;;;1.80;;
17648;SDS011;8943;51.110;-4.158;2023-04-25T09:31:31;4.53;;;1.40;;
17648;SDS011;8943;51.110;-4.158;2023-04-25T09:34:18;3.63;;;1.73;;
17648;SDS011;8943;51.110;-4.158;2023-04-25T09:37:16;7.17;;;1.60;;
17648;SDS011;8943;51.110;-4.158;2023-04-25T09:40:26;7.73;;;2.17;;
17648;SDS011;8943;51.110;-4.158;2023-04-25T09:46:17;3.33;;;1.60;;
17648;SDS011;8943;51.110;-4.158;2023-04-25T09:49:06;5.97;;;1.60;;
17648;SDS011;8943;51.110;-4.158;2023-04-25T09:51:53;6.33;;;1.50;;
17648;SDS011;8943;51.110;-4.158;2023-04-25T09:54:37;3.97;;;1.50;;
17648;SDS011;8943;51.110;-4.158;2023-04-25T09:57:10;3.40;;;1.40;;
17648;SDS011;8943;51.110;-4.158;2023-04-25T09:59:50;6.93;;;1.40;;
17648;SDS011;8943;51.110;-4.158;2023-04-25T10:02:21;6.87;;;2.03;;
17648;SDS011;8943;51.110;-4.158;2023-04-25T10:04:54;3.83;;;1.20;;
17648;SDS011;8943;51.110;-4.158;2023-04-25T10:07:27;6.47;;;1.40;;
17648;SDS011;8943;51.110;-4.158;2023-04-25T10:10:05;7.20;;;2.20;;
17648;SDS011;8943;51.110;-4.158;2023-04-25T10:12:34;5.27;;;1.60;;
17648;SDS011;8943;51.110;-4.158;2023-04-25T10:15:06;5.20;;;1.70;;
17648;SDS011;8943;51.110;-4.158;2023-04-25T10:17:40;7.37;;;1.80;;
17648;SDS011;8943;51.110;-4.158;2023-04-25T10:20:09;5.10;;;1.50;;
17648;SDS011;8943;51.110;-4.158;2023-04-25T10:22:43;3.93;;;1.77;;
17648;SDS011;8943;51.110;-4.158;2023-04-25T10:25:35;5.23;;;1.43;;
17648;SDS011;8943;51.110;-4.158;2023-04-25T10:28:04;4.63;;;1.33;;
17648;SDS011;8943;51.110;-4.158;2023-04-25T10:33:42;5.10;;;1.90;;
17648;SDS011;8943;51.110;-4.158;2023-04-25T10:36:11;4.13;;;1.67;;
17648;SDS011;8943;51.110;-4.158;2023-04-25T10:38:44;6.17;;;1.70;;
17648;SDS011;8943;51.110;-4.158;2023-04-25T10:41:14;3.10;;;1.70;;
17648;SDS011;8943;51.110;-4.158;2023-04-25T10:43:45;6.07;;;1.60;;
17648;SDS011;8943;51.110;-4.158;2023-04-25T10:46:18;7.10;;;1.80;;
17648;SDS011;8943;51.110;-4.158;2023-04-25T10:48:51;2.73;;;1.07;;
17648;SDS011;8943;51.110;-4.158;2023-04-25T10:51:22;2.57;;;1.47;;
17648;SDS011;8943;51.110;-4.158;2023-04-25T10:54:02;3.37;;;1.53;;
17648;SDS011;8943;51.110;-4.158;2023-04-25T10:56:33;4.80;;;1.70;;
17648;SDS011;8943;51.110;-4.158;2023-04-25T10:59:07;5.73;;;1.67;;
17648;SDS011;8943;51.110;-4.158;2023-04-25T11:01:39;7.10;;;1.50;;
17648;SDS011;8943;51.110;-4.158;2023-04-25T11:04:21;4.90;;;1.67;;
17648;SDS011;8943;51.110;-4.158;2023-04-25T11:06:55;5.90;;;1.73;;
17648;SDS011;8943;51.110;-4.158;2023-04-25T11:09:50;3.73;;;1.47;;
17648;SDS011;8943;51.110;-4.158;2023-04-25T11:12:30;3.80;;;1.30;;
17648;SDS011;8943;51.110;-4.158;2023-04-25T11:15:02;5.30;;;1.50;;
17648;SDS011;8943;51.110;-4.158;2023-04-25T11:17:34;5.70;;;1.60;;
17648;SDS011;8943;51.110;-4.158;2023-04-25T11:20:03;3.77;;;1.57;;
17648;SDS011;8943;51.110;-4.158;2023-04-25T11:22:38;3.77;;;1.37;;
17648;SDS011;8943;51.110;-4.158;2023-04-25T11:25:10;5.17;;;1.33;;
17648;SDS011;8943;51.110;-4.158;2023-04-25T11:27:49;3.30;;;1.40;;
17648;SDS011;8943;51.110;-4.158;2023-04-25T11:30:24;9.00;;;1.60;;
17648;SDS011;8943;51.110;-4.158;2023-04-25T11:35:45;4.87;;;1.60;;
17648;SDS011;8943;51.110;-4.158;2023-04-25T11:38:16;3.90;;;1.47;;
17648;SDS011;8943;51.110;-4.158;2023-04-25T11:40:44;2.90;;;1.40;;
17648;SDS011;8943;51.110;-4.158;2023-04-25T11:43:17;5.67;;;1.33;;
17648;SDS011;8943;51.110;-4.158;2023-04-25T11:45:49;7.77;;;1.77;;
17648;SDS011;8943;51.110;-4.158;2023-04-25T11:48:21;2.87;;;1.27;;
17648;SDS011;8943;51.110;-4.158;2023-04-25T11:50:53;2.00;;;0.93;;
17648;SDS011;8943;51.110;-4.158;2023-04-25T11:53:26;2.57;;;1.30;;
17648;SDS011;8943;51.110;-4.158;2023-04-25T11:55:56;3.60;;;1.17;;
17648;SDS011;8943;51.110;-4.158;2023-04-25T11:58:26;3.73;;;1.37;;
17648;SDS011;8943;51.110;-4.158;2023-04-25T12:00:55;5.63;;;1.83;;
17648;SDS011;8943;51.110;-4.158;2023-04-25T12:03:29;3.00;;;1.20;;
17648;SDS011;8943;51.110;-4.158;2023-04-25T12:06:02;5.70;;;1.57;;
17648;SDS011;8943;51.110;-4.158;2023-04-25T12:08:32;6.80;;;1.40;;
17648;SDS011;8943;51.110;-4.158;2023-04-25T12:11:03;3.70;;;1.37;;
17648;SDS011;8943;51.110;-4.158;2023-04-25T12:13:35;4.13;;;1.50;;
17648;SDS011;8943;51.110;-4.158;2023-04-25T12:19:15;3.77;;;1.70;;
17648;SDS011;8943;51.110;-4.158;2023-04-25T12:21:45;4.90;;;1.60;;
17648;SDS011;8943;51.110;-4.158;2023-04-25T12:24:24;3.93;;;1.50;;
17648;SDS011;8943;51.110;-4.158;2023-04-25T12:27:09;4.20;;;1.30;;
17648;SDS011;8943;51.110;-4.158;2023-04-25T12:29:52;3.60;;;1.40;;
17648;SDS011;8943;51.110;-4.158;2023-04-25T12:32:40;2.10;;;1.20;;
17648;SDS011;8943;51.110;-4.158;2023-04-25T12:35:18;2.73;;;1.47;;
17648;SDS011;8943;51.110;-4.158;2023-04-25T12:37:54;2.30;;;1.30;;
17648;SDS011;8943;51.110;-4.158;2023-04-25T12:40:41;5.57;;;1.80;;
17648;SDS011;8943;51.110;-4.158;2023-04-25T12:43:12;4.03;;;2.07;;
17648;SDS011;8943;51.110;-4.158;2023-04-25T12:45:43;3.80;;;1.80;;
17648;SDS011;8943;51.110;-4.158;2023-04-25T12:48:23;2.13;;;1.37;;
17648;SDS011;8943;51.110;-4.158;2023-04-25T12:50:56;3.80;;;1.47;;
17648;SDS011;8943;51.110;-4.158;2023-04-25T12:53:26;3.40;;;1.90;;
17648;SDS011;8943;51.110;-4.158;2023-04-25T12:55:59;3.63;;;1.60;;
17648;SDS011;8943;51.110;-4.158;2023-04-25T12:58:39;3.53;;;1.50;;
17648;SDS011;8943;51.110;-4.158;2023-04-25T13:01:20;3.80;;;1.43;;
17648;SDS011;8943;51.110;-4.158;2023-04-25T13:03:52;2.23;;;1.40;;
17648;SDS011;8943;51.110;-4.158;2023-04-25T13:06:27;3.57;;;1.83;;
17648;SDS011;8943;51.110;-4.158;2023-04-25T13:09:00;2.70;;;1.50;;
17648;SDS011;8943;51.110;-4.158;2023-04-25T13:11:36;2.03;;;1.50;;
17648;SDS011;8943;51.110;-4.158;2023-04-25T13:14:04;4.83;;;1.43;;
17648;SDS011;8943;51.110;-4.158;2023-04-25T13:17:03;3.90;;;1.73;;
17648;SDS011;8943;51.110;-4.158;2023-04-25T13:19:48;1.97;;;1.30;;
17648;SDS011;8943;51.110;-4.158;2023-04-25T13:25:16;7.27;;;1.77;;
17648;SDS011;8943;51.110;-4.158;2023-04-25T13:27:48;4.53;;;2.20;;
17648;SDS011;8943;51.110;-4.158;2023-04-25T13:30:20;5.13;;;1.53;;
17648;SDS011;8943;51.110;-4.158;2023-04-25T13:32:54;5.17;;;1.63;;
17648;SDS011;8943;51.110;-4.158;2023-04-25T13:35:37;4.53;;;1.27;;
17648;SDS011;8943;51.110;-4.158;2023-04-25T13:38:14;3.60;;;1.67;;
17648;SDS011;8943;51.110;-4.158;2023-04-25T13:40:50;3.90;;;1.73;;
17648;SDS011;8943;51.110;-4.158;2023-04-25T13:43:33;5.17;;;1.40;;
17648;SDS011;8943;51.110;-4.158;2023-04-25T13:46:16;3.17;;;1.30;;
17648;SDS011;8943;51.110;-4.158;2023-04-25T13:49:06;3.60;;;1.50;;
17648;SDS011;8943;51.110;-4.158;2023-04-25T13:51:38;5.23;;;1.40;;
17648;SDS011;8943;51.110;-4.158;2023-04-25T13:54:17;4.50;;;1.37;;
17648;SDS011;8943;51.110;-4.158;2023-04-25T13:56:46;3.23;;;1.53;;
17648;SDS011;8943;51.110;-4.158;2023-04-25T13:59:17;2.40;;;1.50;;
17648;SDS011;8943;51.110;-4.158;2023-04-25T14:01:56;4.03;;;1.60;;
17648;SDS011;8943;51.110;-4.158;2023-04-25T14:04:39;4.40;;;1.93;;
17648;SDS011;8943;51.110;-4.158;2023-04-25T14:07:33;2.50;;;1.67;;
17648;SDS011;8943;51.110;-4.158;2023-04-25T14:10:21;5.93;;;1.80;;
17648;SDS011;8943;51.110;-4.158;2023-04-25T14:13:09;2.10;;;1.40;;
17648;SDS011;8943;51.110;-4.158;2023-04-25T14:16:11;6.83;;;2.13;;
17648;SDS011;8943;51.110;-4.158;2023-04-25T14:18:53;4.50;;;1.87;;
17648;SDS011;8943;51.110;-4.158;2023-04-25T14:21:26;3.37;;;1.60;;
17648;SDS011;8943;51.110;-4.158;2023-04-25T14:24:16;3.63;;;1.70;;
17648;SDS011;8943;51.110;-4.158;2023-04-25T14:38:13;1.90;;;1.40;;
17648;SDS011;8943;51.110;-4.158;2023-04-25T14:40:48;4.45;;;2.00;;
17648;SDS011;8943;51.110;-4.158;2023-04-25T14:43:40;3.57;;;1.63;;
17648;SDS011;8943;51.110;-4.158;2023-04-25T14:46:33;2.97;;;1.50;;
17648;SDS011;8943;51.110;-4.158;2023-04-25T14:49:37;3.97;;;1.50;;
17648;SDS011;8943;51.110;-4.158;2023-04-25T14:52:07;3.90;;;1.57;;
17648;SDS011;8943;51.110;-4.158;2023-04-25T16:02:08;4.93;;;1.45;;
17648;SDS011;8943;51.110;-4.158;2023-04-25T16:04:40;4.10;;;1.55;;
17648;SDS011;8943;51.110;-4.158;2023-04-25T16:07:14;4.90;;;2.05;;
17648;SDS011;8943;51.110;-4.158;2023-04-25T16:09:44;2.75;;;1.30;;
17648;SDS011;8943;51.110;-4.158;2023-04-25T16:12:32;3.65;;;1.33;;
17648;SDS011;8943;51.110;-4.158;2023-04-25T16:18:30;7.18;;;1.90;;
17648;SDS011;8943;51.110;-4.158;2023-04-25T16:21:04;4.63;;;1.70;;
17648;SDS011;8943;51.110;-4.158;2023-04-25T16:23:35;4.20;;;1.55;;
17648;SDS011;8943;51.110;-4.158;2023-04-25T16:26:04;6.07;;;2.15;;
17648;SDS011;8943;51.110;-4.158;2023-04-25T16:28:36;6.22;;;2.03;;
17648;SDS011;8943;51.110;-4.158;2023-04-25T16:31:11;4.80;;;2.07;;
17648;SDS011;8943;51.110;-4.158;2023-04-25T16:34:05;4.73;;;2.37;;
17648;SDS011;8943;51.110;-4.158;2023-04-25T16:36:44;4.37;;;1.90;;
17648;SDS011;8943;51.110;-4.158;2023-04-25T16:39:13;4.53;;;1.97;;
17648;SDS011;8943;51.110;-4.158;2023-04-25T16:41:47;3.30;;;1.80;;
17648;SDS011;8943;51.110;-4.158;2023-04-25T16:44:16;4.10;;;1.93;;
17648;SDS011;8943;51.110;-4.158;2023-04-25T16:47:01;5.07;;;1.70;;
17648;SDS011;8943;51.110;-4.158;2023-04-25T16:49:31;1.60;;;1.30;;
17648;SDS011;8943;51.110;-4.158;2023-04-25T16:52:07;2.33;;;1.20;;
17648;SDS011;8943;51.110;-4.158;2023-04-25T16:54:39;3.70;;;1.60;;
17648;SDS011;8943;51.110;-4.158;2023-04-25T16:57:09;4.73;;;2.10;;
17648;SDS011;8943;51.110;-4.158;2023-04-25T16:59:39;6.13;;;2.03;;
17648;SDS011;8943;51.110;-4.158;2023-04-25T17:05:26;4.50;;;1.60;;
17648;SDS011;8943;51.110;-4.158;2023-04-25T17:08:07;4.18;;;1.80;;
17648;SDS011;8943;51.110;-4.158;2023-04-25T17:10:44;4.65;;;1.70;;
17648;SDS011;8943;51.110;-4.158;2023-04-25T17:13:42;4.45;;;1.70;;
17648;SDS011;8943;51.110;-4.158;2023-04-25T17:16:12;5.47;;;1.90;;
17648;SDS011;8943;51.110;-4.158;2023-04-25T17:19:04;5.95;;;2.13;;
17648;SDS011;8943;51.110;-4.158;2023-04-25T17:24:52;4.13;;;1.77;;
17648;SDS011;8943;51.110;-4.158;2023-04-25T17:27:24;3.85;;;2.20;;
17648;SDS011;8943;51.110;-4.158;2023-04-25T17:29:53;6.00;;;1.83;;
17648;SDS011;8943;51.110;-4.158;2023-04-25T17:32:22;6.43;;;1.98;;
17648;SDS011;8943;51.110;-4.158;2023-04-25T17:34:53;7.33;;;2.00;;
17648;SDS011;8943;51.110;-4.158;2023-04-25T17:40:37;6.67;;;1.93;;
17648;SDS011;8943;51.110;-4.158;2023-04-25T17:43:07;4.67;;;1.80;;
17648;SDS011;8943;51.110;-4.158;2023-04-25T17:45:36;3.40;;;1.50;;
17648;SDS011;8943;51.110;-4.158;2023-04-25T17:48:06;8.77;;;2.00;;
17648;SDS011;8943;51.110;-4.158;2023-04-25T17:50:34;7.00;;;1.60;;
17648;SDS011;8943;51.110;-4.158;2023-04-25T17:53:05;5.73;;;2.07;;
17648;SDS011;8943;51.110;-4.158;2023-04-25T17:55:36;4.17;;;1.70;;
17648;SDS011;8943;51.110;-4.158;2023-04-25T17:58:17;5.67;;;1.83;;
17648;SDS011;8943;51.110;-4.158;2023-04-25T18:00:50;5.63;;;2.00;;
17648;SDS011;8943;51.110;-4.158;2023-04-25T18:03:34;5.67;;;2.33;;
17648;SDS011;8943;51.110;-4.158;2023-04-25T18:06:31;8.43;;;2.27;;
17648;SDS011;8943;51.110;-4.158;2023-04-25T18:09:22;6.13;;;2.60;;
17648;SDS011;8943;51.110;-4.158;2023-04-25T18:12:22;6.43;;;2.90;;
17648;SDS011;8943;51.110;-4.158;2023-04-25T18:14:59;5.93;;;2.47;;
17648;SDS011;8943;51.110;-4.158;2023-04-25T18:17:34;10.97;;;4.63;;
17648;SDS011;8943;51.110;-4.158;2023-04-25T18:20:22;5.83;;;3.90;;
17648;SDS011;8943;51.110;-4.158;2023-04-25T18:22:58;6.57;;;2.50;;
17648;SDS011;8943;51.110;-4.158;2023-04-25T18:25:44;18.37;;;6.33;;
17648;SDS011;8943;51.110;-4.158;2023-04-25T18:28:28;8.50;;;4.47;;
17648;SDS011;8943;51.110;-4.158;2023-04-25T18:31:10;10.93;;;3.20;;
17648;SDS011;8943;51.110;-4.158;2023-04-25T18:33:39;6.50;;;3.30;;
17648;SDS011;8943;51.110;-4.158;2023-04-25T18:36:10;5.13;;;2.57;;
17648;SDS011;8943;51.110;-4.158;2023-04-25T18:38:44;4.80;;;2.90;;
17648;SDS011;8943;51.110;-4.158;2023-04-25T18:41:30;8.80;;;2.77;;
17648;SDS011;8943;51.110;-4.158;2023-04-25T18:44:21;3.67;;;1.73;;
17648;SDS011;8943;51.110;-4.158;2023-04-25T18:46:53;6.70;;;2.03;;
17648;SDS011;8943;51.110;-4.158;2023-04-25T18:49:24;6.53;;;1.80;;
17648;SDS011;8943;51.110;-4.158;2023-04-25T18:52:01;5.30;;;3.10;;
17648;SDS011;8943;51.110;-4.158;2023-04-25T18:54:43;7.10;;;2.40;;
17648;SDS011;8943;51.110;-4.158;2023-04-25T18:57:13;5.67;;;2.03;;
17648;SDS011;8943;51.110;-4.158;2023-04-25T18:59:45;8.10;;;3.73;;
17648;SDS011;8943;51.110;-4.158;2023-04-25T19:02:18;5.77;;;1.83;;
17648;SDS011;8943;51.110;-4.158;2023-04-25T19:04:50;6.03;;;1.70;;
17648;SDS011;8943;51.110;-4.158;2023-04-25T19:07:23;7.93;;;2.57;;
17648;SDS011;8943;51.110;-4.158;2023-04-25T19:09:54;7.33;;;3.40;;
17648;SDS011;8943;51.110;-4.158;2023-04-25T19:12:28;7.43;;;2.70;;
17648;SDS011;8943;51.110;-4.158;2023-04-25T19:15:58;4.57;;;2.00;;
17648;SDS011;8943;51.110;-4.158;2023-04-25T19:18:30;8.17;;;2.53;;
17648;SDS011;8943;51.110;-4.158;2023-04-25T19:20:59;6.10;;;2.30;;
17648;SDS011;8943;51.110;-4.158;2023-04-25T19:23:36;5.60;;;2.47;;
17648;SDS011;8943;51.110;-4.158;2023-04-25T19:26:07;4.43;;;1.77;;
17648;SDS011;8943;51.110;-4.158;2023-04-25T19:28:36;5.00;;;2.67;;
17648;SDS011;8943;51.110;-4.158;2023-04-25T19:31:07;10.73;;;4.23;;
17648;SDS011;8943;51.110;-4.158;2023-04-25T19:33:38;10.57;;;3.00;;
17648;SDS011;8943;51.110;-4.158;2023-04-25T19:36:10;6.67;;;1.83;;
17648;SDS011;8943;51.110;-4.158;2023-04-25T19:38:40;3.80;;;1.43;;
17648;SDS011;8943;51.110;-4.158;2023-04-25T19:41:36;3.80;;;2.03;;
17648;SDS011;8943;51.110;-4.158;2023-04-25T19:44:07;5.60;;;2.00;;
17648;SDS011;8943;51.110;-4.158;2023-04-25T19:46:38;8.73;;;3.90;;
17648;SDS011;8943;51.110;-4.158;2023-04-25T19:49:18;7.10;;;4.10;;
17648;SDS011;8943;51.110;-4.158;2023-04-25T19:51:50;5.63;;;2.10;;
17648;SDS011;8943;51.110;-4.158;2023-04-25T19:54:21;8.50;;;2.33;;
17648;SDS011;8943;51.110;-4.158;2023-04-25T19:57:17;5.47;;;1.90;;
17648;SDS011;8943;51.110;-4.158;2023-04-25T19:59:59;7.67;;;2.73;;
17648;SDS011;8943;51.110;-4.158;2023-04-25T20:02:48;3.83;;;2.13;;
17648;SDS011;8943;51.110;-4.158;2023-04-25T20:05:18;4.07;;;1.97;;
17648;SDS011;8943;51.110;-4.158;2023-04-25T20:07:49;7.30;;;2.50;;
17648;SDS011;8943;51.110;-4.158;2023-04-25T20:10:18;7.70;;;2.10;;
17648;SDS011;8943;51.110;-4.158;2023-04-25T20:12:49;7.13;;;2.20;;
17648;SDS011;8943;51.110;-4.158;2023-04-25T20:15:22;6.23;;;2.23;;
17648;SDS011;8943;51.110;-4.158;2023-04-25T20:18:08;8.57;;;2.03;;
17648;SDS011;8943;51.110;-4.158;2023-04-25T20:20:52;6.00;;;2.27;;
17648;SDS011;8943;51.110;-4.158;2023-04-25T20:24:21;7.77;;;1.80;;
17648;SDS011;8943;51.110;-4.158;2023-04-25T20:27:19;5.93;;;2.20;;
17648;SDS011;8943;51.110;-4.158;2023-04-25T20:30:12;7.67;;;2.20;;
17648;SDS011;8943;51.110;-4.158;2023-04-25T20:32:49;6.03;;;1.90;;
17648;SDS011;8943;51.110;-4.158;2023-04-25T20:35:36;8.13;;;2.23;;
17648;SDS011;8943;51.110;-4.158;2023-04-25T20:38:05;8.13;;;2.50;;
17648;SDS011;8943;51.110;-4.158;2023-04-25T20:40:35;8.43;;;4.57;;
17648;SDS011;8943;51.110;-4.158;2023-04-25T20:43:04;8.13;;;3.37;;
17648;SDS011;8943;51.110;-4.158;2023-04-25T20:45:37;7.53;;;3.27;;
17648;SDS011;8943;51.110;-4.158;2023-04-25T20:48:07;7.40;;;1.93;;
17648;SDS011;8943;51.110;-4.158;2023-04-25T20:50:42;7.60;;;2.10;;
17648;SDS011;8943;51.110;-4.158;2023-04-25T20:53:31;6.57;;;2.50;;
17648;SDS011;8943;51.110;-4.158;2023-04-25T20:56:36;4.00;;;2.10;;
17648;SDS011;8943;51.110;-4.158;2023-04-25T20:59:14;7.00;;;2.17;;
17648;SDS011;8943;51.110;-4.158;2023-04-25T21:01:52;4.80;;;1.90;;
